createdAt,value
2022-12-31T00:04:33.435Z,993
2022-12-31T00:18:42.651Z,993
2022-12-31T00:32:53.715Z,993
2022-12-31T00:47:05.262Z,993
2022-12-31T01:01:11.737Z,993
2022-12-31T01:15:19.493Z,993
2022-12-31T01:29:28.945Z,993
2022-12-31T01:43:36.098Z,994
2022-12-31T01:57:42.108Z,994
2022-12-31T02:11:47.501Z,994
2022-12-31T02:25:56.281Z,994
2022-12-31T02:40:06.776Z,994
2022-12-31T02:54:17.741Z,994
2022-12-31T03:08:27.255Z,994
2022-12-31T03:22:38.223Z,994
2022-12-31T03:36:49.171Z,994
2022-12-31T03:51:00.186Z,994
2022-12-31T04:05:07.901Z,994
2022-12-31T04:19:14.251Z,994
2022-12-31T04:33:21.416Z,995
2022-12-31T04:47:26.028Z,995
2022-12-31T05:01:38.815Z,995
2022-12-31T05:15:50.676Z,995
2022-12-31T05:29:59.553Z,995
2022-12-31T05:44:05.859Z,995
2022-12-31T05:58:16.150Z,995
2022-12-31T06:12:26.070Z,995
2022-12-31T06:26:32.277Z,995
2022-12-31T06:40:42.543Z,995
2022-12-31T06:54:50.351Z,995
2022-12-31T07:08:58.785Z,996
2022-12-31T07:23:07.486Z,996
2022-12-31T07:37:12.666Z,996
2022-12-31T07:51:22.698Z,996
2022-12-31T08:05:29.414Z,996
2022-12-31T08:19:40.822Z,996
2022-12-31T08:33:52.589Z,997
2022-12-31T08:48:04.235Z,997
2022-12-31T09:02:15.462Z,997
2022-12-31T09:16:23.981Z,997
2022-12-31T09:30:32.516Z,998
2022-12-31T09:44:39.293Z,997
2022-12-31T09:58:49.131Z,997
2022-12-31T10:13:05.517Z,997
2022-12-31T10:27:12.849Z,997
2022-12-31T10:41:22.638Z,998
2022-12-31T10:55:31.852Z,998
2022-12-31T11:09:37.923Z,998
2022-12-31T11:23:45.803Z,998
2022-12-31T11:37:52.955Z,998
2022-12-31T11:52:04.721Z,998
2022-12-31T12:06:13.664Z,998
2022-12-31T12:20:24.438Z,998
2022-12-31T12:34:35.139Z,998
2022-12-31T12:48:40.210Z,998
2022-12-31T13:02:49.253Z,998
2022-12-31T13:17:01.056Z,998
2022-12-31T13:31:09.218Z,998
2022-12-31T13:45:18.774Z,998
2022-12-31T13:59:26.273Z,998
2022-12-31T14:13:34.918Z,998
2022-12-31T14:27:43.407Z,998
2022-12-31T14:41:48.910Z,998
2022-12-31T14:56:00.936Z,998
2022-12-31T15:10:08.551Z,998
2022-12-31T15:24:18.206Z,998
2022-12-31T15:38:32.995Z,998
2022-12-31T15:52:44.961Z,998
2022-12-31T16:06:54.845Z,998
2022-12-31T16:20:59.489Z,997
2022-12-31T16:35:07.058Z,997
2022-12-31T16:49:15.210Z,997
2022-12-31T17:03:22.881Z,997
2022-12-31T17:17:27.854Z,997
2022-12-31T17:31:36.384Z,997
2022-12-31T17:45:47.102Z,997
2022-12-31T17:59:57.018Z,997
2022-12-31T18:14:03.407Z,997
2022-12-31T18:28:13.190Z,997
2022-12-31T18:42:21.493Z,997
2022-12-31T18:56:30.305Z,998
2022-12-31T19:10:42.386Z,998
2022-12-31T19:24:50.665Z,998
2022-12-31T19:38:59.555Z,998
2022-12-31T19:53:06.150Z,999
2022-12-31T20:07:23.687Z,999
2022-12-31T20:21:28.368Z,999
2022-12-31T20:35:39.126Z,998
2022-12-31T20:50:10.799Z,999
2022-12-31T21:04:05.731Z,999
2022-12-31T21:18:06.307Z,999
2022-12-31T21:32:15.642Z,999
2022-12-31T21:46:23.497Z,999
2022-12-31T22:00:43.671Z,999
2022-12-31T22:14:34.656Z,999
2022-12-31T22:28:42.121Z,999
2022-12-31T22:42:52.715Z,999
2022-12-31T22:57:02.549Z,999
2022-12-31T23:11:11.678Z,999
2022-12-31T23:25:16.439Z,1000
2022-12-31T23:39:27.309Z,1000
2022-12-31T23:53:35.170Z,1000
